Time;durP1;ratioP1;P1;durP2;ratioP2;P2;SDS_P1;SDS_P2;PMS_P1;PMS_P2;Temp;Humidity;BMP_temperature;BMP_pressure;BME280_temperature;BME280_humidity;BME280_pressure;Samples;Min_cycle;Max_cycle;Signal;HPM_P1;HPM_P2
2023/12/21 00:00:19;;;;;;;1.00;0.80;;;5.70;1.00;;;;;;7379331;19;20018;-68
2023/12/21 00:02:52;;;;;;;1.98;0.98;;;5.80;1.00;;;;;;7377465;19;20013;-67
2023/12/21 00:05:22;;;;;;;0.98;0.57;;;5.80;1.00;;;;;;7376814;19;20074;-67
2023/12/21 00:07:52;;;;;;;2.65;0.90;;;5.80;1.00;;;;;;7377504;19;20526;-67
2023/12/21 00:10:22;;;;;;;2.85;0.93;;;5.80;1.00;;;;;;7377070;19;20014;-68
2023/12/21 00:12:52;;;;;;;1.20;0.80;;;5.70;1.00;;;;;;7374949;19;20353;-69
2023/12/21 00:15:22;;;;;;;2.15;0.93;;;5.70;1.00;;;;;;7376951;19;20585;-69
2023/12/21 00:17:55;;;;;;;0.75;0.57;;;5.70;1.00;;;;;;7376203;19;20393;-68
2023/12/21 00:20:25;;;;;;;0.73;0.50;;;5.70;1.00;;;;;;7375831;19;20002;-68
2023/12/21 00:22:55;;;;;;;1.52;0.77;;;5.70;1.00;;;;;;7374034;19;20315;-68
2023/12/21 00:25:25;;;;;;;1.13;0.55;;;5.70;1.00;;;;;;7374454;19;20481;-68
2023/12/21 00:27:55;;;;;;;1.45;0.68;;;5.70;1.00;;;;;;7375957;19;20006;-67
2023/12/21 00:30:25;;;;;;;1.52;0.60;;;5.70;1.00;;;;;;7376362;19;20010;-68
2023/12/21 00:32:58;;;;;;;1.05;0.68;;;5.80;1.00;;;;;;7375899;19;20558;-68
2023/12/21 00:35:28;;;;;;;2.53;0.77;;;5.80;1.00;;;;;;7375902;19;20014;-68
2023/12/21 00:37:58;;;;;;;0.50;0.40;;;5.70;1.00;;;;;;7375115;19;20014;-69
2023/12/21 00:40:28;;;;;;;0.77;0.50;;;5.70;1.00;;;;;;7375618;19;20011;-68
2023/12/21 00:42:58;;;;;;;0.70;0.50;;;5.70;1.00;;;;;;7374994;19;20014;-68
2023/12/21 00:45:29;;;;;;;1.35;0.45;;;5.70;1.00;;;;;;7376004;19;20017;-69
2023/12/21 00:48:02;;;;;;;0.70;0.40;;;5.70;1.00;;;;;;7375191;19;20003;-69
2023/12/21 00:50:32;;;;;;;1.63;0.40;;;5.80;1.00;;;;;;7376943;19;20050;-69
2023/12/21 00:53:02;;;;;;;0.90;0.70;;;5.80;1.00;;;;;;7373720;19;20541;-69
2023/12/21 00:55:32;;;;;;;1.40;0.40;;;5.80;1.00;;;;;;7373908;19;20028;-68
2023/12/21 00:58:02;;;;;;;1.05;0.35;;;5.80;1.00;;;;;;7375844;19;20087;-69
2023/12/21 01:00:32;;;;;;;0.52;0.38;;;5.80;1.00;;;;;;7375433;19;20095;-69
2023/12/21 01:03:04;;;;;;;0.75;0.43;;;5.80;1.00;;;;;;7373650;19;20014;-69
2023/12/21 01:05:34;;;;;;;0.52;0.30;;;5.80;1.00;;;;;;7375659;19;20010;-68
2023/12/21 01:08:04;;;;;;;1.63;0.40;;;5.80;1.00;;;;;;7374139;19;20011;-69
2023/12/21 01:10:38;;;;;;;0.40;0.35;;;5.80;1.00;;;;;;7375019;19;20459;-68
2023/12/21 01:13:08;;;;;;;1.30;0.40;;;5.80;1.00;;;;;;7373410;19;20401;-68
2023/12/21 01:15:38;;;;;;;0.40;0.30;;;5.80;1.00;;;;;;7374454;19;20460;-70
2023/12/21 01:18:11;;;;;;;1.05;0.50;;;5.90;1.00;;;;;;7373652;19;20019;-68
2023/12/21 01:20:42;;;;;;;0.68;0.38;;;5.80;1.00;;;;;;7375896;19;20007;-69
2023/12/21 01:23:12;;;;;;;0.60;0.40;;;5.90;1.00;;;;;;7372647;19;20012;-69
2023/12/21 01:25:41;;;;;;;0.57;0.40;;;5.80;1.00;;;;;;7374706;19;20036;-69
2023/12/21 01:28:11;;;;;;;0.63;0.30;;;5.80;1.00;;;;;;7374852;19;20797;-69
2023/12/21 01:30:41;;;;;;;0.60;0.40;;;5.80;1.00;;;;;;7373736;19;20010;-69
2023/12/21 01:33:15;;;;;;;0.90;0.38;;;5.80;1.00;;;;;;7371589;19;20014;-68
2023/12/21 01:35:45;;;;;;;0.82;0.28;;;5.80;1.00;;;;;;7373866;19;20010;-68
2023/12/21 01:38:15;;;;;;;0.47;0.30;;;5.80;1.00;;;;;;7373150;19;20017;-68
2023/12/21 01:40:45;;;;;;;0.88;0.35;;;5.80;1.00;;;;;;7373587;19;20021;-69
2023/12/21 01:43:15;;;;;;;0.38;0.30;;;5.80;1.00;;;;;;7372739;19;20035;-68
2023/12/21 01:45:45;;;;;;;2.58;0.63;;;5.90;1.00;;;;;;7373730;19;20471;-68
2023/12/21 01:48:18;;;;;;;0.30;0.25;;;5.90;1.00;;;;;;7373012;19;20035;-68
2023/12/21 01:50:48;;;;;;;0.57;0.50;;;5.90;1.00;;;;;;7373726;19;20471;-68
2023/12/21 01:53:19;;;;;;;1.27;0.40;;;5.90;1.00;;;;;;7372147;19;20070;-68
2023/12/21 01:55:49;;;;;;;1.55;0.60;;;5.90;1.00;;;;;;7372962;19;20398;-69
2023/12/21 01:58:20;;;;;;;0.95;0.20;;;5.80;1.00;;;;;;7373348;19;20052;-68
2023/12/21 02:00:50;;;;;;;0.95;0.32;;;5.90;1.00;;;;;;7375696;19;20014;-69
2023/12/21 02:03:22;;;;;;;0.88;0.30;;;6.00;1.00;;;;;;7371695;19;20010;-68
2023/12/21 02:05:53;;;;;;;0.55;0.38;;;6.00;1.00;;;;;;7377000;19;20027;-68
2023/12/21 02:08:23;;;;;;;1.65;0.20;;;6.00;1.00;;;;;;7375299;19;20018;-69
2023/12/21 02:10:58;;;;;;;0.50;0.30;;;6.00;1.00;;;;;;7375049;19;20015;-68
2023/12/21 02:13:28;;;;;;;0.40;0.20;;;6.00;1.00;;;;;;7379309;19;20027;-68
2023/12/21 02:16:01;;;;;;;1.05;0.40;;;6.00;1.00;;;;;;7381005;19;20011;-69
2023/12/21 02:18:34;;;;;;;0.55;0.20;;;6.00;1.00;;;;;;7379486;19;20380;-68
2023/12/21 02:21:05;;;;;;;0.30;0.30;;;6.10;1.00;;;;;;7378626;19;20018;-69
2023/12/21 02:23:39;;;;;;;0.57;0.20;;;6.10;1.00;;;;;;7377444;19;20377;-68
2023/12/21 02:26:13;;;;;;;1.65;0.38;;;6.00;1.00;;;;;;7379339;19;20003;-69
2023/12/21 02:28:43;;;;;;;0.40;0.30;;;6.10;1.00;;;;;;7379481;19;20022;-69
2023/12/21 02:31:13;;;;;;;0.17;0.17;;;6.10;1.00;;;;;;7379509;19;20014;-68
2023/12/21 02:33:43;;;;;;;0.35;0.30;;;6.10;1.00;;;;;;7376246;19;20025;-68
2023/12/21 02:36:14;;;;;;;0.28;0.20;;;6.10;1.00;;;;;;7380194;19;20784;-68
2023/12/21 02:38:44;;;;;;;1.02;0.30;;;6.10;1.00;;;;;;7377812;19;20508;-69
2023/12/21 02:41:16;;;;;;;0.55;0.20;;;6.10;1.00;;;;;;7378387;19;20014;-69
2023/12/21 02:43:46;;;;;;;0.73;0.20;;;6.10;1.00;;;;;;7377093;19;20010;-68
2023/12/21 02:46:16;;;;;;;0.63;0.35;;;6.10;1.00;;;;;;7379191;19;20013;-68
2023/12/21 02:48:47;;;;;;;1.40;0.20;;;6.10;1.00;;;;;;7377851;19;20017;-68
2023/12/21 02:51:17;;;;;;;0.75;0.30;;;6.10;1.00;;;;;;7380304;19;20014;-68
2023/12/21 02:53:47;;;;;;;1.15;0.25;;;6.10;1.00;;;;;;7376254;19;20033;-69
2023/12/21 02:56:19;;;;;;;0.20;0.13;;;6.10;1.00;;;;;;7377963;19;20014;-69
2023/12/21 02:58:49;;;;;;;0.63;0.30;;;6.10;1.00;;;;;;7379065;19;20457;-68
2023/12/21 03:01:19;;;;;;;0.45;0.20;;;6.10;1.00;;;;;;7379435;19;20306;-68
2023/12/21 03:03:49;;;;;;;0.60;0.20;;;6.20;1.00;;;;;;7375151;19;20414;-68
2023/12/21 03:06:19;;;;;;;0.40;0.17;;;6.20;1.00;;;;;;7379344;19;20110;-68
2023/12/21 03:08:49;;;;;;;1.13;0.63;;;6.10;1.00;;;;;;7378851;19;20027;-68
2023/12/21 03:11:22;;;;;;;0.20;0.10;;;6.10;1.00;;;;;;7378329;19;20034;-68
2023/12/21 03:13:52;;;;;;;0.35;0.20;;;6.20;1.00;;;;;;7377750;19;20069;-69
2023/12/21 03:16:22;;;;;;;0.50;0.25;;;6.20;1.00;;;;;;7378316;19;20015;-69
2023/12/21 03:18:52;;;;;;;0.10;0.05;;;6.20;1.00;;;;;;7377792;19;20463;-68
2023/12/21 03:21:22;;;;;;;1.05;0.20;;;6.20;1.00;;;;;;7378392;19;20475;-68
2023/12/21 03:23:52;;;;;;;0.40;0.20;;;6.20;1.00;;;;;;7375538;19;20105;-68
2023/12/21 03:26:24;;;;;;;0.10;0.08;;;6.30;1.00;;;;;;7377848;19;20043;-68
2023/12/21 03:28:54;;;;;;;0.28;0.10;;;6.20;1.00;;;;;;7377571;19;20017;-68
2023/12/21 03:31:25;;;;;;;0.20;0.10;;;6.20;1.00;;;;;;7378804;19;20031;-68
2023/12/21 03:33:54;;;;;;;0.17;0.17;;;6.30;1.00;;;;;;7376776;19;20021;-68
2023/12/21 03:36:26;;;;;;;0.30;0.17;;;6.30;1.00;;;;;;7378479;19;20018;-69
2023/12/21 03:38:56;;;;;;;0.13;0.10;;;6.20;1.00;;;;;;7378192;19;20022;-68
2023/12/21 03:41:29;;;;;;;0.20;0.10;;;6.20;1.00;;;;;;7378207;19;20023;-68
2023/12/21 03:44:00;;;;;;;0.20;0.20;;;6.20;1.00;;;;;;7378324;19;20073;-68
2023/12/21 03:46:30;;;;;;;0.40;0.15;;;6.20;1.00;;;;;;7378156;19;20114;-68
2023/12/21 03:49:00;;;;;;;0.10;0.10;;;6.20;1.00;;;;;;7377608;19;20103;-68
2023/12/21 03:51:30;;;;;;;0.63;0.20;;;6.30;1.00;;;;;;7378819;19;20012;-68
2023/12/21 03:54:00;;;;;;;0.20;0.17;;;6.30;1.00;;;;;;7377916;19;20006;-68
2023/12/21 03:56:33;;;;;;;0.10;0.10;;;6.30;1.00;;;;;;7378162;19;20007;-68
2023/12/21 03:59:03;;;;;;;0.45;0.20;;;6.30;1.00;;;;;;7376300;19;20010;-68
2023/12/21 04:01:33;;;;;;;0.45;0.20;;;6.30;1.00;;;;;;7374814;19;20372;-68
2023/12/21 04:04:04;;;;;;;0.20;0.20;;;6.20;1.00;;;;;;7377701;19;20098;-68
2023/12/21 04:06:34;;;;;;;0.20;0.20;;;6.30;1.00;;;;;;7377533;19;20007;-68
2023/12/21 04:09:05;;;;;;;0.10;0.10;;;6.30;1.00;;;;;;7377440;19;20193;-68
2023/12/21 04:11:38;;;;;;;0.10;0.10;;;6.30;1.00;;;;;;7377838;19;20011;-68
2023/12/21 04:14:08;;;;;;;0.40;0.10;;;6.30;1.00;;;;;;7373839;19;20042;-68
2023/12/21 04:16:38;;;;;;;0.20;0.10;;;6.20;1.00;;;;;;7375166;19;20491;-69
2023/12/21 04:19:08;;;;;;;0.65;0.20;;;6.30;1.00;;;;;;7375994;19;20035;-67
2023/12/21 04:21:41;;;;;;;0.20;0.10;;;6.30;1.00;;;;;;7376877;19;20010;-68
2023/12/21 04:24:12;;;;;;;0.20;0.13;;;6.30;1.00;;;;;;7377097;19;20089;-67
2023/12/21 04:26:44;;;;;;;0.28;0.10;;;6.30;1.00;;;;;;7376638;19;20014;-68
2023/12/21 04:29:14;;;;;;;0.30;0.20;;;6.30;1.00;;;;;;7376445;19;21633;-68
2023/12/21 04:31:44;;;;;;;0.22;0.20;;;6.30;1.00;;;;;;7373825;19;20377;-68
2023/12/21 04:34:15;;;;;;;0.28;0.20;;;6.20;1.00;;;;;;7374260;19;20464;-68
2023/12/21 04:36:45;;;;;;;1.45;0.10;;;6.20;1.00;;;;;;7378156;19;20035;-68
2023/12/21 04:39:15;;;;;;;0.45;0.20;;;6.20;1.00;;;;;;7379042;19;20028;-68
2023/12/21 04:41:48;;;;;;;0.40;0.10;;;6.10;1.00;;;;;;7377322;19;20002;-67
2023/12/21 04:44:18;;;;;;;0.22;0.20;;;6.10;1.00;;;;;;7376867;19;20010;-68
2023/12/21 04:46:49;;;;;;;0.20;0.20;;;6.10;1.00;;;;;;7377396;19;20463;-68
2023/12/21 04:49:22;;;;;;;0.40;0.20;;;6.10;1.00;;;;;;7377128;19;20467;-68
2023/12/21 04:51:53;;;;;;;1.70;0.35;;;6.20;1.00;;;;;;7376633;19;20045;-69
2023/12/21 04:54:23;;;;;;;0.28;0.10;;;6.10;1.00;;;;;;7375678;19;20035;-69
2023/12/21 04:56:55;;;;;;;0.40;0.20;;;6.20;1.00;;;;;;7375970;19;20011;-70
2023/12/21 04:59:25;;;;;;;0.30;0.20;;;6.20;1.00;;;;;;7376427;19;20010;-70
2023/12/21 05:01:56;;;;;;;0.30;0.20;;;6.20;1.00;;;;;;7374238;19;20039;-68
2023/12/21 05:04:26;;;;;;;0.80;0.30;;;6.20;1.00;;;;;;7374329;19;20010;-69
2023/12/21 05:06:57;;;;;;;0.63;0.20;;;6.20;1.00;;;;;;7375110;19;20451;-68
2023/12/21 05:09:27;;;;;;;0.35;0.30;;;6.30;1.00;;;;;;7375895;19;20010;-68
2023/12/21 05:12:00;;;;;;;0.10;0.10;;;6.30;1.00;;;;;;7374921;19;20040;-68
2023/12/21 05:14:30;;;;;;;0.43;0.20;;;6.30;1.00;;;;;;7375663;19;20013;-69
2023/12/21 05:17:00;;;;;;;0.10;0.10;;;6.20;1.00;;;;;;7375415;19;20827;-69
2023/12/21 05:19:30;;;;;;;0.10;0.10;;;6.20;1.00;;;;;;7374700;19;20475;-69
2023/12/21 05:22:00;;;;;;;0.40;0.20;;;6.30;1.00;;;;;;7376955;19;20027;-68
2023/12/21 05:24:30;;;;;;;0.30;0.30;;;6.30;1.00;;;;;;7375759;19;20007;-69
2023/12/21 05:27:03;;;;;;;0.22;0.20;;;6.30;1.00;;;;;;7375495;19;20010;-69
2023/12/21 05:29:33;;;;;;;0.68;0.20;;;6.30;1.00;;;;;;7373524;19;20011;-67
2023/12/21 05:32:03;;;;;;;0.75;0.20;;;6.30;1.00;;;;;;7376477;19;20024;-69
2023/12/21 05:34:33;;;;;;;0.65;0.20;;;6.40;1.00;;;;;;7374544;19;20010;-69
2023/12/21 05:37:03;;;;;;;0.22;0.10;;;6.40;1.00;;;;;;7375803;19;20015;-68
2023/12/21 05:39:35;;;;;;;0.80;0.38;;;6.40;1.00;;;;;;7375354;19;20014;-69
2023/12/21 05:42:08;;;;;;;0.22;0.10;;;6.40;1.00;;;;;;7376222;19;20010;-68
2023/12/21 05:44:38;;;;;;;0.40;0.20;;;6.40;1.00;;;;;;7373875;19;20349;-70
2023/12/21 05:47:08;;;;;;;0.20;0.20;;;6.40;1.00;;;;;;7381602;19;20014;-69
2023/12/21 05:49:38;;;;;;;0.25;0.17;;;6.50;1.00;;;;;;7381502;19;20487;-70
2023/12/21 05:52:08;;;;;;;0.20;0.20;;;6.50;1.00;;;;;;7381075;19;20136;-68
2023/12/21 05:54:39;;;;;;;0.10;0.10;;;6.50;1.00;;;;;;7379958;19;20023;-68
2023/12/21 05:57:13;;;;;;;0.32;0.25;;;6.50;1.00;;;;;;7378832;19;20357;-68
2023/12/21 05:59:43;;;;;;;;;;;6.50;1.00;;;;;;7379942;19;20013;-68
2023/12/21 06:02:13;;;;;;;0.52;0.20;;;6.50;1.00;;;;;;7380195;19;19999;-67
2023/12/21 06:04:43;;;;;;;0.20;0.20;;;6.60;1.00;;;;;;7380061;19;20054;-68
2023/12/21 06:07:13;;;;;;;0.63;0.30;;;6.50;1.00;;;;;;7379378;19;20031;-68
2023/12/21 06:09:44;;;;;;;0.30;0.20;;;6.60;1.00;;;;;;7378575;19;20036;-67
2023/12/21 06:12:17;;;;;;;0.15;0.10;;;6.50;1.00;;;;;;7380642;19;20013;-68
2023/12/21 06:14:47;;;;;;;1.00;0.20;;;6.60;1.00;;;;;;7380452;19;20007;-68
2023/12/21 06:17:17;;;;;;;0.20;0.17;;;6.60;1.00;;;;;;7378468;19;20037;-67
2023/12/21 06:19:47;;;;;;;0.20;0.20;;;6.60;1.00;;;;;;7379810;19;20496;-67
2023/12/21 06:22:18;;;;;;;0.90;0.30;;;6.60;1.00;;;;;;7379324;19;20398;-69
2023/12/21 06:24:49;;;;;;;0.20;0.20;;;6.60;1.00;;;;;;7379139;19;20014;-68
2023/12/21 06:27:22;;;;;;;0.75;0.25;;;6.60;1.00;;;;;;7378075;19;20356;-68
2023/12/21 06:29:52;;;;;;;0.20;0.20;;;6.60;1.00;;;;;;7377748;19;20085;-67
2023/12/21 06:32:22;;;;;;;0.57;0.30;;;6.70;1.00;;;;;;7378482;19;20363;-67
2023/12/21 06:34:52;;;;;;;0.38;0.15;;;6.60;1.00;;;;;;7380125;19;20018;-67
2023/12/21 06:37:22;;;;;;;0.28;0.28;;;6.70;1.00;;;;;;7369738;19;20010;-69
2023/12/21 06:39:54;;;;;;;0.95;0.20;;;6.70;1.00;;;;;;7370851;19;20014;-69
2023/12/21 06:42:28;;;;;;;0.30;0.20;;;6.70;1.00;;;;;;7375765;19;20006;-69
2023/12/21 06:44:59;;;;;;;0.30;0.20;;;6.70;1.00;;;;;;7377618;19;20047;-70
2023/12/21 06:47:30;;;;;;;0.30;0.20;;;6.70;1.00;;;;;;7379195;19;20006;-69
2023/12/21 06:50:02;;;;;;;0.50;0.22;;;6.80;1.00;;;;;;7374081;19;20584;-69
2023/12/21 06:52:34;;;;;;;0.60;0.25;;;6.80;1.00;;;;;;7370306;19;20404;-70
2023/12/21 06:55:04;;;;;;;0.43;0.20;;;6.80;1.00;;;;;;7373828;19;20014;-69
2023/12/21 06:57:38;;;;;;;0.57;0.20;;;6.80;1.00;;;;;;7376133;19;20014;-70
2023/12/21 07:00:09;;;;;;;0.53;0.20;;;6.80;1.00;;;;;;7376599;19;20333;-71
2023/12/21 07:02:41;;;;;;;0.93;0.20;;;6.80;1.00;;;;;;7377841;19;20215;-69
2023/12/21 07:05:12;;;;;;;0.90;0.20;;;6.80;1.00;;;;;;7377273;19;20403;-69
2023/12/21 07:07:43;;;;;;;0.73;0.20;;;6.80;1.00;;;;;;7375976;19;20094;-68
2023/12/21 07:10:15;;;;;;;0.30;0.20;;;6.80;1.00;;;;;;7365432;19;20015;-69
2023/12/21 07:12:48;;;;;;;0.63;0.40;;;6.80;1.00;;;;;;7360701;19;20013;-68
2023/12/21 07:15:19;;;;;;;1.20;0.32;;;6.80;1.00;;;;;;7369781;19;20015;-67
2023/12/21 07:17:50;;;;;;;0.65;0.40;;;6.90;1.00;;;;;;7367849;19;20030;-69
2023/12/21 07:20:24;;;;;;;0.55;0.30;;;6.90;1.00;;;;;;7370040;19;20010;-69
2023/12/21 07:22:55;;;;;;;0.43;0.25;;;6.90;1.00;;;;;;7368991;19;20014;-70
2023/12/21 07:25:26;;;;;;;0.85;0.40;;;6.90;1.00;;;;;;7372996;19;20006;-69
2023/12/21 07:27:59;;;;;;;0.80;0.30;;;6.90;1.00;;;;;;7369817;19;20046;-69
2023/12/21 07:30:30;;;;;;;0.38;0.30;;;6.90;1.00;;;;;;7374156;19;20060;-70
2023/12/21 07:33:01;;;;;;;1.17;0.30;;;6.90;1.00;;;;;;7374563;19;20039;-69
2023/12/21 07:35:35;;;;;;;;;;;7.00;1.00;;;;;;7369026;19;20083;-69
2023/12/21 07:38:05;;;;;;;0.47;0.32;;;7.00;1.00;;;;;;7372094;19;19914;-69
2023/12/21 07:40:37;;;;;;;0.25;0.20;;;7.00;1.00;;;;;;7375438;19;20018;-69
2023/12/21 07:43:11;;;;;;;0.57;0.20;;;7.10;1.00;;;;;;7350076;19;20019;-70
2023/12/21 07:45:41;;;;;;;0.60;0.32;;;7.10;1.00;;;;;;7366220;19;20050;-69
2023/12/21 07:48:13;;;;;;;0.35;0.30;;;7.10;1.00;;;;;;7372113;19;20037;-69
2023/12/21 07:50:44;;;;;;;0.30;0.20;;;7.20;1.00;;;;;;7373992;19;20021;-70
2023/12/21 07:53:15;;;;;;;0.63;0.30;;;7.10;1.00;;;;;;7375350;19;20018;-68
2023/12/21 07:55:48;;;;;;;0.50;0.40;;;7.10;1.00;;;;;;7369812;19;20016;-67
2023/12/21 07:58:22;;;;;;;1.25;0.60;;;7.20;1.00;;;;;;7366881;19;20007;-69
2023/12/21 08:00:53;;;;;;;;;;;7.20;1.00;;;;;;7372413;19;20007;-67
2023/12/21 08:03:23;;;;;;;0.77;0.25;;;7.20;1.00;;;;;;7374209;19;20399;-67
2023/12/21 08:05:55;;;;;;;0.70;0.40;;;7.20;1.00;;;;;;7377964;19;20007;-68
2023/12/21 08:08:25;;;;;;;0.43;0.20;;;7.20;1.00;;;;;;7373501;19;20089;-68
2023/12/21 08:10:56;;;;;;;0.35;0.30;;;7.20;1.00;;;;;;7378537;19;20021;-67
2023/12/21 08:13:29;;;;;;;0.43;0.30;;;7.20;1.00;;;;;;7375075;19;20090;-68
2023/12/21 08:15:56;;;;;;;0.52;0.40;;;7.30;1.00;;;;;;7377927;19;20003;-68
2023/12/21 08:18:26;;;;;;;0.50;0.22;;;7.30;1.00;;;;;;7376335;19;20015;-68
2023/12/21 08:20:57;;;;;;;0.57;0.20;;;7.30;1.00;;;;;;7377659;19;20081;-67
2023/12/21 08:23:27;;;;;;;0.60;0.30;;;7.40;1.00;;;;;;7378114;19;20014;-68
2023/12/21 08:25:57;;;;;;;0.50;0.20;;;7.40;1.00;;;;;;7377771;19;20014;-68
2023/12/21 08:28:30;;;;;;;11.63;7.47;;;7.40;1.00;;;;;;7377987;19;20007;-68
2023/12/21 08:31:01;;;;;;;0.30;0.23;;;7.40;1.00;;;;;;7379396;19;20035;-68
2023/12/21 08:33:32;;;;;;;0.28;0.28;;;7.50;1.00;;;;;;7376622;19;20025;-67
2023/12/21 08:36:02;;;;;;;0.20;0.20;;;7.50;1.00;;;;;;7379886;19;20002;-68
2023/12/21 08:38:32;;;;;;;1.50;0.40;;;7.50;1.00;;;;;;7375886;19;20386;-69
2023/12/21 08:41:02;;;;;;;0.70;0.20;;;7.50;1.00;;;;;;7377702;19;20471;-67
2023/12/21 08:43:36;;;;;;;1.63;0.55;;;7.60;1.00;;;;;;7376195;19;20438;-68
2023/12/21 08:46:06;;;;;;;0.80;0.20;;;7.60;1.00;;;;;;7376089;19;20019;-68
2023/12/21 08:48:37;;;;;;;0.90;0.40;;;7.60;1.00;;;;;;7374239;19;20018;-68
2023/12/21 08:51:07;;;;;;;0.40;0.20;;;7.60;1.00;;;;;;7376710;19;20018;-68
2023/12/21 08:53:38;;;;;;;0.40;0.38;;;7.60;1.00;;;;;;7370951;19;20044;-68
2023/12/21 08:56:09;;;;;;;0.65;0.50;;;7.60;1.00;;;;;;7374390;19;20030;-68
2023/12/21 08:58:41;;;;;;;1.45;0.43;;;7.70;1.00;;;;;;7375755;19;20034;-70
2023/12/21 09:01:12;;;;;;;0.57;0.30;;;7.60;1.00;;;;;;7375373;19;20006;-70
2023/12/21 09:03:42;;;;;;;0.25;0.20;;;7.60;1.00;;;;;;7377646;19;20448;-71
2023/12/21 09:06:13;;;;;;;0.50;0.30;;;7.70;1.00;;;;;;7377480;19;20036;-70
2023/12/21 09:08:43;;;;;;;0.70;0.30;;;7.70;1.00;;;;;;7375322;19;20020;-69
2023/12/21 09:11:14;;;;;;;0.63;0.40;;;7.70;1.00;;;;;;7375918;19;20074;-68
2023/12/21 09:13:47;;;;;;;0.50;0.30;;;7.70;1.00;;;;;;7376010;19;20049;-70
2023/12/21 09:16:17;;;;;;;0.95;0.20;;;7.70;1.00;;;;;;7375836;19;20075;-68
2023/12/21 09:18:47;;;;;;;0.77;0.30;;;7.70;1.00;;;;;;7375744;19;20014;-69
2023/12/21 09:21:17;;;;;;;0.30;0.22;;;7.70;1.00;;;;;;7380347;19;20088;-68
2023/12/21 09:23:47;;;;;;;0.30;0.20;;;7.80;1.00;;;;;;7382843;19;20687;-68
2023/12/21 09:26:17;;;;;;;0.35;0.20;;;7.80;1.00;;;;;;7382164;19;20007;-70
2023/12/21 09:28:50;;;;;;;0.30;0.28;;;7.80;1.00;;;;;;7382083;19;20014;-69
2023/12/21 09:31:21;;;;;;;0.28;0.20;;;7.80;1.00;;;;;;7382588;19;20106;-71
2023/12/21 09:33:52;;;;;;;0.85;0.32;;;7.80;1.00;;;;;;7382409;19;20014;-69
2023/12/21 09:36:21;;;;;;;0.55;0.28;;;7.80;1.00;;;;;;7380833;19;20078;-68
2023/12/21 09:38:52;;;;;;;2.10;1.25;;;7.80;1.00;;;;;;7381433;19;20056;-69
2023/12/21 09:41:22;;;;;;;0.88;0.40;;;7.80;1.00;;;;;;7381488;19;20007;-69
2023/12/21 09:43:57;;;;;;;1.13;0.22;;;7.80;1.00;;;;;;7383615;19;20112;-69
2023/12/21 09:46:29;;;;;;;2.80;0.45;;;7.90;1.00;;;;;;7386509;19;20463;-68
2023/12/21 09:49:00;;;;;;;0.63;0.40;;;7.90;1.00;;;;;;7381942;19;20010;-69
2023/12/21 09:51:30;;;;;;;0.55;0.30;;;7.90;1.00;;;;;;7381024;19;20035;-69
2023/12/21 09:54:04;;;;;;;0.65;0.30;;;8.00;1.00;;;;;;7379707;19;20014;-68
2023/12/21 09:56:35;;;;;;;0.30;0.20;;;8.00;1.00;;;;;;7379915;19;20012;-69
2023/12/21 09:59:08;;;;;;;0.77;0.20;;;8.10;1.00;;;;;;7381404;19;20621;-68
2023/12/21 10:01:38;;;;;;;1.52;0.47;;;8.10;1.00;;;;;;7383481;19;20475;-70
2023/12/21 10:04:09;;;;;;;1.38;0.30;;;8.10;1.00;;;;;;7382495;19;20787;-68
2023/12/21 10:06:40;;;;;;;0.28;0.20;;;8.10;1.00;;;;;;7382751;19;20845;-69
2023/12/21 10:09:12;;;;;;;0.60;0.40;;;8.10;1.00;;;;;;7383476;19;20021;-69
2023/12/21 10:11:43;;;;;;;0.30;0.20;;;8.20;1.00;;;;;;7378167;19;20017;-68
2023/12/21 10:14:21;;;;;;;3.55;2.40;;;8.30;1.00;;;;;;7379992;19;20013;-69
2023/12/21 10:16:51;;;;;;;0.65;0.10;;;8.30;1.00;;;;;;7382241;19;20011;-69
2023/12/21 10:19:21;;;;;;;0.22;0.15;;;8.30;1.00;;;;;;7375947;19;20036;-68
2023/12/21 10:21:51;;;;;;;0.28;0.10;;;8.30;1.00;;;;;;7379888;19;20063;-69
2023/12/21 10:24:22;;;;;;;0.30;0.22;;;8.40;1.00;;;;;;7379712;19;20011;-69
2023/12/21 10:26:52;;;;;;;0.40;0.30;;;8.40;1.00;;;;;;7378915;19;20071;-67
2023/12/21 10:29:24;;;;;;;1.00;0.35;;;8.40;1.00;;;;;;7379490;19;20010;-69
2023/12/21 10:31:56;;;;;;;0.80;0.40;;;8.40;1.00;;;;;;7374949;19;20130;-69
2023/12/21 10:34:26;;;;;;;0.88;0.20;;;8.40;1.00;;;;;;7379878;19;20043;-69
2023/12/21 10:37:00;;;;;;;0.32;0.20;;;8.40;1.00;;;;;;7379977;19;20018;-70
2023/12/21 10:39:31;;;;;;;;;;;8.50;1.00;;;;;;7380448;19;20002;-69
2023/12/21 10:42:02;;;;;;;1.20;0.65;;;8.50;1.00;;;;;;7377830;19;20344;-68
2023/12/21 10:44:35;;;;;;;0.30;0.20;;;8.50;1.00;;;;;;7379957;19;20151;-69
2023/12/21 10:47:06;;;;;;;0.70;0.20;;;8.50;1.00;;;;;;7379132;19;20664;-68
2023/12/21 10:49:36;;;;;;;0.95;0.38;;;8.60;1.00;;;;;;7378857;19;20078;-69
2023/12/21 10:52:08;;;;;;;0.52;0.32;;;8.60;1.00;;;;;;7379408;19;20021;-67
2023/12/21 10:54:42;;;;;;;0.65;0.30;;;8.60;1.00;;;;;;7380527;19;20017;-69
2023/12/21 10:57:12;;;;;;;1.02;0.38;;;8.60;1.00;;;;;;7376728;19;20792;-69
2023/12/21 10:59:46;;;;;;;1.25;0.30;;;8.60;1.00;;;;;;7376181;19;20014;-68
2023/12/21 11:02:16;;;;;;;;;;;8.70;1.00;;;;;;7379237;19;20007;-69
2023/12/21 11:04:48;;;;;;;0.60;0.30;;;8.70;1.00;;;;;;7381969;19;19915;-68
2023/12/21 11:07:18;;;;;;;1.50;0.93;;;8.60;1.00;;;;;;7376337;19;20075;-68
2023/12/21 11:09:49;;;;;;;1.67;0.52;;;8.70;1.00;;;;;;7379183;19;20017;-68
2023/12/21 11:12:20;;;;;;;0.60;0.30;;;8.70;1.00;;;;;;7378524;19;20003;-68
2023/12/21 11:14:53;;;;;;;0.17;0.10;;;8.70;1.00;;;;;;7379859;19;20017;-68
2023/12/21 11:17:23;;;;;;;0.57;0.22;;;8.70;1.00;;;;;;7379133;19;20014;-68
2023/12/21 11:19:55;;;;;;;0.75;0.20;;;8.70;1.00;;;;;;7379964;19;20402;-69
2023/12/21 11:22:27;;;;;;;1.50;0.30;;;8.80;1.00;;;;;;7380074;19;20014;-69
2023/12/21 11:25:04;;;;;;;0.20;0.10;;;8.80;1.00;;;;;;7378665;19;20021;-68
2023/12/21 11:27:34;;;;;;;0.45;0.20;;;8.80;1.00;;;;;;7378476;19;20077;-68
2023/12/21 11:30:15;;;;;;;2.22;0.40;;;8.90;1.00;;;;;;7379672;19;20056;-68
2023/12/21 11:32:46;;;;;;;0.20;0.20;;;8.80;1.00;;;;;;7380488;19;20025;-68
2023/12/21 11:35:23;;;;;;;;;;;8.90;1.00;;;;;;7380786;19;20055;-67
2023/12/21 11:37:54;;;;;;;0.90;0.50;;;8.90;1.00;;;;;;7378588;19;19986;-69
2023/12/21 11:40:27;;;;;;;0.43;0.20;;;8.90;1.00;;;;;;7378693;19;20363;-69
2023/12/21 11:42:59;;;;;;;0.10;0.10;;;9.00;1.00;;;;;;7379141;19;20019;-68
2023/12/21 11:45:34;;;;;;;0.32;0.28;;;9.00;1.00;;;;;;7379031;19;20342;-68
2023/12/21 11:48:06;;;;;;;0.40;0.20;;;9.00;1.00;;;;;;7379871;19;20018;-69
2023/12/21 11:50:36;;;;;;;0.50;0.30;;;9.10;1.00;;;;;;7378576;19;20010;-68
2023/12/21 11:53:11;;;;;;;1.17;0.77;;;9.10;1.00;;;;;;7379307;19;20021;-68
2023/12/21 11:55:46;;;;;;;1.35;0.35;;;9.10;1.00;;;;;;7379253;19;20545;-67
2023/12/21 11:58:22;;;;;;;0.22;0.20;;;9.10;1.00;;;;;;7377862;19;20046;-68
2023/12/21 12:00:58;;;;;;;2.92;1.35;;;9.10;1.00;;;;;;7377514;19;20006;-67
2023/12/21 12:03:29;;;;;;;0.75;0.17;;;9.10;1.00;;;;;;7378649;19;20061;-68
2023/12/21 12:06:03;;;;;;;0.93;0.30;;;9.20;1.00;;;;;;7378972;19;20019;-68
2023/12/21 12:08:36;;;;;;;0.50;0.30;;;9.20;1.00;;;;;;7377092;19;20456;-67
2023/12/21 12:11:06;;;;;;;0.88;0.20;;;9.20;1.00;;;;;;7377748;19;20381;-67
2023/12/21 12:13:36;;;;;;;1.55;0.30;;;9.20;1.00;;;;;;7381133;19;20039;-68
2023/12/21 12:16:10;;;;;;;0.60;0.30;;;9.20;1.00;;;;;;7379519;19;20365;-70
2023/12/21 12:18:42;;;;;;;0.32;0.25;;;9.20;1.00;;;;;;7377090;19;20042;-68
2023/12/21 12:21:12;;;;;;;0.70;0.40;;;9.30;1.00;;;;;;7377910;19;20371;-68
2023/12/21 12:23:42;;;;;;;1.95;0.63;;;9.30;1.00;;;;;;7376558;19;20006;-68
2023/12/21 12:26:14;;;;;;;0.30;0.20;;;9.30;1.00;;;;;;7377528;19;20007;-68
2023/12/21 12:28:44;;;;;;;0.73;0.50;;;9.30;1.00;;;;;;7376540;19;20007;-69
2023/12/21 12:31:17;;;;;;;0.57;0.30;;;9.30;1.00;;;;;;7375834;19;20605;-67
2023/12/21 12:33:49;;;;;;;0.68;0.20;;;9.30;1.00;;;;;;7376878;19;20015;-68
2023/12/21 12:36:19;;;;;;;0.40;0.28;;;9.40;1.00;;;;;;7377169;19;20014;-66
2023/12/21 12:38:50;;;;;;;0.40;0.28;;;9.50;1.00;;;;;;7376520;19;20042;-67
2023/12/21 12:41:22;;;;;;;0.65;0.20;;;9.60;1.00;;;;;;7377264;19;20010;-69
2023/12/21 12:43:53;;;;;;;0.43;0.20;;;9.60;1.00;;;;;;7375358;19;20010;-68
2023/12/21 12:46:28;;;;;;;0.50;0.40;;;9.60;1.00;;;;;;7375411;19;20074;-69
2023/12/21 12:48:58;;;;;;;1.33;0.30;;;9.60;1.00;;;;;;7374722;19;20014;-69
2023/12/21 12:51:28;;;;;;;0.73;0.30;;;9.60;1.00;;;;;;7373866;19;20078;-68
2023/12/21 12:53:59;;;;;;;0.75;0.20;;;9.60;1.00;;;;;;7374592;19;20523;-68
2023/12/21 12:56:29;;;;;;;2.60;0.30;;;9.60;1.00;;;;;;7375844;19;20119;-68
2023/12/21 12:58:59;;;;;;;0.32;0.20;;;9.60;1.00;;;;;;7375436;19;20033;-68
2023/12/21 13:01:31;;;;;;;0.10;0.10;;;9.60;1.00;;;;;;7376657;19;20123;-68
2023/12/21 13:04:01;;;;;;;0.65;0.28;;;9.70;1.00;;;;;;7375539;19;20031;-68
2023/12/21 13:06:32;;;;;;;0.20;0.20;;;9.60;1.00;;;;;;7374460;19;20010;-68
2023/12/21 13:09:02;;;;;;;0.10;0.10;;;9.60;1.00;;;;;;7374388;19;20006;-68
2023/12/21 13:11:33;;;;;;;1.30;0.10;;;9.60;1.00;;;;;;7374897;19;20007;-68
2023/12/21 13:14:05;;;;;;;0.85;0.10;;;9.70;1.00;;;;;;7373168;19;20602;-68
2023/12/21 13:16:38;;;;;;;0.30;0.30;;;9.60;1.00;;;;;;7375012;19;20011;-68
2023/12/21 13:19:08;;;;;;;1.85;0.10;;;9.60;1.00;;;;;;7374870;19;20021;-67
2023/12/21 13:21:39;;;;;;;0.40;0.10;;;9.50;1.00;;;;;;7375830;19;20006;-67
2023/12/21 13:24:09;;;;;;;0.47;0.20;;;9.50;1.00;;;;;;7374342;19;20019;-68
2023/12/21 13:26:39;;;;;;;0.32;0.30;;;9.40;1.00;;;;;;7374537;19;20014;-68
2023/12/21 13:29:11;;;;;;;0.50;0.13;;;9.30;1.00;;;;;;7375522;19;20037;-68